Jamestown, OH

7:55 AM EST on January 29, 2015 (GMT -0500)
APRSWXNET Jamestown OH US | Change Station
CLOSE
Current Station
Personal Weather Station
Location: Bowersville, OH
Elevation: 1187 ft
Nearby Weather Stations
Active Advisory: Special Statement

Elev 1187 ft 39.60 °N, 83.70 °W | Updated 21 minutes ago

Ice Pellets
Ice Pellets
35 °F
Feels Like 26 °F
N
13
Wind Variable Wind from South
Gusts 19.0 mph

Today
High -- | Low -- °F
--% Chance of Precip.
Yesterday
High -- | Low -- °F
Precip. -- in
7:45 AM 5:50 PM
Waxing Gibbous, 74% visible
Pressure 29.98 in
Visibility 6.0 miles
Clouds Few 2900 ft
Overcast 7000 ft
Windchill 26 °F
Dew Point 30 °F
Humidity 83%
Rainfall -999.00 in
Snow Depth Not available.
UV 0 out of 12
Pollen .10 out of 12
Air Quality Not available.
Flu Activity Not available.
METAR KILN 291154Z AUTO 19013G21KT 6SM RA FEW029 OVC070 01/M03 A2990 RMK AO2 RAB04 SLP151 P0003 60003 70003 T00111033 10017 21028 56033

More Conditions Fewer Conditions

Pressure 29.98 in
Visibility 6.0 miles
Clouds Few 2900 ft
Overcast 7000 ft
Windchill 26 °F
Dew Point 30 °F
Humidity 83%
Rainfall -999.00 in
Snow Depth Not available.
UV 0 out of 12
Pollen .10 out of 12
Air Quality Not available.
Flu Activity Not available.
METAR KILN 291154Z AUTO 19013G21KT 6SM RA FEW029 OVC070 01/M03 A2990 RMK AO2 RAB04 SLP151 P0003 60003 70003 T00111033 10017 21028 56033

More Conditions Fewer Conditions

10-Day Weather Forecast

Almanac

Astronomy

Jan. 29, 2015 Rise Set
Actual Time
Civil Twilight
Nautical Twilight
Astronomical Twilight
Moon
Length of Visible Light
Length of Day
Tomorrow will be .
, % of the Moon is Illuminated

Today's Extremes

State Highs State Lows

Community

WunderPhotos

Upload Photos

1,791,420 photos uploaded!

WunderBlogs® & News

Nearby

Air Quality

  Air Quality AQ Index Pollutant
Not available.

Snow Depth

Station Depth Elevation

Earthquake Activity

City Distance Mag. Time & Date
Minimum magnitude displayed is 2.5.

Coastal Water Temperatures

Place Temperature

Nearby Weather Stations